EYVI/VNO METAR and TAF weather

Enter ICAO airport designator
Station Type Date Time Source
EYVI METAR 2020/09/22 07:50 UTC NOAA

EYVI 220750Z 20008KT CAVOK 15/10 Q1017 NOSIG


Station Type Date Time Source
EYVI Decoded METAR 2020/09/22 07:50 UTC NOAA

Vilnius, Lithuania (EYVI) 54-38N 025-06E 156M
Sep 22, 2020 - 03:50 AM EDT / 2020.09.22 0750 UTC
Wind: from the SSW (200 degrees) at 9 MPH (8 KT):0
Visibility: greater than 7 mile(s):0
Temperature: 59 F (15 C)
Dew Point: 50 F (10 C)
Relative Humidity: 72%
Pressure (altimeter): 30.03 in. Hg (1017 hPa)
ob: EYVI 220750Z 20008KT CAVOK 15/10 Q1017 NOSIG
cycle: 8

Station Type Date Time Source
EYVI TAF 2020/09/22 06:03 UTC NOAA

TAF EYVI 220501Z 2206/2306 18008KT CAVOK

Example: see airport list